sensor_id;sensor_type;location;lat;lon;timestamp;temperature;humidity
74811;DHT22;63340;48.404;-4.506;2022-12-18T00:02:00;6.16;60.16
74811;DHT22;63340;48.404;-4.506;2022-12-18T00:04:26;6.09;60.92
74811;DHT22;63340;48.404;-4.506;2022-12-18T00:06:52;6.10;60.49
74811;DHT22;63340;48.404;-4.506;2022-12-18T00:09:18;6.14;60.69
74811;DHT22;63340;48.404;-4.506;2022-12-18T00:11:43;6.14;60.77
74811;DHT22;63340;48.404;-4.506;2022-12-18T00:14:11;6.12;61.34
74811;DHT22;63340;48.404;-4.506;2022-12-18T00:16:37;6.10;61.19
74811;DHT22;63340;48.404;-4.506;2022-12-18T00:19:03;6.00;62.00
74811;DHT22;63340;48.404;-4.506;2022-12-18T00:21:29;6.00;61.82
74811;DHT22;63340;48.404;-4.506;2022-12-18T00:23:56;6.06;61.65
74811;DHT22;63340;48.404;-4.506;2022-12-18T00:26:25;6.09;61.69
74811;DHT22;63340;48.404;-4.506;2022-12-18T00:28:51;6.09;62.02
74811;DHT22;63340;48.404;-4.506;2022-12-18T00:31:19;6.10;61.58
74811;DHT22;63340;48.404;-4.506;2022-12-18T00:33:45;6.17;61.50
74811;DHT22;63340;48.404;-4.506;2022-12-18T00:36:23;6.23;61.50
74811;DHT22;63340;48.404;-4.506;2022-12-18T00:38:49;6.30;61.78
74811;DHT22;63340;48.404;-4.506;2022-12-18T00:41:16;6.31;62.10
74811;DHT22;63340;48.404;-4.506;2022-12-18T00:44:02;6.38;62.02
74811;DHT22;63340;48.404;-4.506;2022-12-18T00:46:28;6.38;61.82
74811;DHT22;63340;48.404;-4.506;2022-12-18T00:48:53;6.40;62.65
74811;DHT22;63340;48.404;-4.506;2022-12-18T00:51:19;6.38;62.21
74811;DHT22;63340;48.404;-4.506;2022-12-18T00:53:44;6.36;62.69
74811;DHT22;63340;48.404;-4.506;2022-12-18T00:56:09;6.33;62.36
74811;DHT22;63340;48.404;-4.506;2022-12-18T00:58:35;6.29;62.90
74811;DHT22;63340;48.404;-4.506;2022-12-18T01:01:00;6.26;62.95
74811;DHT22;63340;48.404;-4.506;2022-12-18T01:03:25;6.27;62.86
74811;DHT22;63340;48.404;-4.506;2022-12-18T01:05:51;6.24;63.44
74811;DHT22;63340;48.404;-4.506;2022-12-18T01:08:16;6.14;63.77
74811;DHT22;63340;48.404;-4.506;2022-12-18T01:10:42;6.12;63.68
74811;DHT22;63340;48.404;-4.506;2022-12-18T01:13:07;6.12;64.08
74811;DHT22;63340;48.404;-4.506;2022-12-18T01:15:33;6.12;64.44
74811;DHT22;63340;48.404;-4.506;2022-12-18T01:17:59;6.10;64.27
74811;DHT22;63340;48.404;-4.506;2022-12-18T01:20:24;6.06;64.46
74811;DHT22;63340;48.404;-4.506;2022-12-18T01:22:49;6.06;65.16
74811;DHT22;63340;48.404;-4.506;2022-12-18T01:25:15;6.05;64.47
74811;DHT22;63340;48.404;-4.506;2022-12-18T01:27:40;6.06;64.72
74811;DHT22;63340;48.404;-4.506;2022-12-18T01:30:06;6.10;64.81
74811;DHT22;63340;48.404;-4.506;2022-12-18T01:32:32;6.12;65.39
74811;DHT22;63340;48.404;-4.506;2022-12-18T01:34:57;6.10;64.73
74811;DHT22;63340;48.404;-4.506;2022-12-18T01:37:23;6.19;65.06
74811;DHT22;63340;48.404;-4.506;2022-12-18T01:39:49;6.16;65.48
74811;DHT22;63340;48.404;-4.506;2022-12-18T01:42:16;6.17;65.29
74811;DHT22;63340;48.404;-4.506;2022-12-18T01:50:15;6.21;66.17
74811;DHT22;63340;48.404;-4.506;2022-12-18T01:52:47;6.19;66.21
74811;DHT22;63340;48.404;-4.506;2022-12-18T01:55:16;6.17;66.67
74811;DHT22;63340;48.404;-4.506;2022-12-18T01:57:43;6.21;65.86
74811;DHT22;63340;48.404;-4.506;2022-12-18T02:00:18;6.31;66.22
74811;DHT22;63340;48.404;-4.506;2022-12-18T02:02:45;6.33;66.35
74811;DHT22;63340;48.404;-4.506;2022-12-18T02:05:14;6.34;66.62
74811;DHT22;63340;48.404;-4.506;2022-12-18T02:18:21;6.45;67.23
74811;DHT22;63340;48.404;-4.506;2022-12-18T02:20:54;6.48;67.17
74811;DHT22;63340;48.404;-4.506;2022-12-18T02:29:08;6.65;66.32
74811;DHT22;63340;48.404;-4.506;2022-12-18T02:31:39;6.75;66.32
74811;DHT22;63340;48.404;-4.506;2022-12-18T02:34:08;6.85;66.62
74811;DHT22;63340;48.404;-4.506;2022-12-18T02:36:37;6.88;66.20
74811;DHT22;63340;48.404;-4.506;2022-12-18T02:39:07;6.98;66.12
74811;DHT22;63340;48.404;-4.506;2022-12-18T02:41:34;7.02;65.93
74811;DHT22;63340;48.404;-4.506;2022-12-18T02:44:08;7.12;65.91
74811;DHT22;63340;48.404;-4.506;2022-12-18T02:46:37;7.16;66.20
74811;DHT22;63340;48.404;-4.506;2022-12-18T02:57:53;7.12;66.54
74811;DHT22;63340;48.404;-4.506;2022-12-18T03:00:43;7.10;66.36
74811;DHT22;63340;48.404;-4.506;2022-12-18T03:03:27;7.09;67.29
74811;DHT22;63340;48.404;-4.506;2022-12-18T03:06:11;7.16;66.92
74811;DHT22;63340;48.404;-4.506;2022-12-18T03:08:43;7.26;67.13
74811;DHT22;63340;48.404;-4.506;2022-12-18T03:11:11;7.27;67.95
74811;DHT22;63340;48.404;-4.506;2022-12-18T03:13:53;7.31;67.53
74811;DHT22;63340;48.404;-4.506;2022-12-18T03:16:25;7.36;67.61
74811;DHT22;63340;48.404;-4.506;2022-12-18T03:18:56;7.42;68.37
74811;DHT22;63340;48.404;-4.506;2022-12-18T03:21:30;7.38;68.54
74811;DHT22;63340;48.404;-4.506;2022-12-18T03:23:58;7.42;68.33
74811;DHT22;63340;48.404;-4.506;2022-12-18T03:26:25;7.46;68.01
74811;DHT22;63340;48.404;-4.506;2022-12-18T03:28:56;7.54;67.89
74811;DHT22;63340;48.404;-4.506;2022-12-18T03:31:26;7.61;67.76
74811;DHT22;63340;48.404;-4.506;2022-12-18T03:33:55;7.68;67.70
74811;DHT22;63340;48.404;-4.506;2022-12-18T03:36:22;7.70;67.53
74811;DHT22;63340;48.404;-4.506;2022-12-18T03:38:48;7.77;67.46
74811;DHT22;63340;48.404;-4.506;2022-12-18T03:41:33;7.84;67.69
74811;DHT22;63340;48.404;-4.506;2022-12-18T03:44:15;7.89;67.49
74811;DHT22;63340;48.404;-4.506;2022-12-18T03:49:38;7.81;67.59
74811;DHT22;63340;48.404;-4.506;2022-12-18T03:52:09;7.81;67.93
74811;DHT22;63340;48.404;-4.506;2022-12-18T03:54:36;7.84;67.61
74811;DHT22;63340;48.404;-4.506;2022-12-18T03:57:09;7.88;67.82
74811;DHT22;63340;48.404;-4.506;2022-12-18T03:59:37;7.88;67.69
74811;DHT22;63340;48.404;-4.506;2022-12-18T04:02:06;7.95;67.94
74811;DHT22;63340;48.404;-4.506;2022-12-18T04:04:33;8.02;67.75
74811;DHT22;63340;48.404;-4.506;2022-12-18T04:07:00;8.06;67.75
74811;DHT22;63340;48.404;-4.506;2022-12-18T04:09:25;8.13;67.90
74811;DHT22;63340;48.404;-4.506;2022-12-18T04:11:51;8.15;67.79
74811;DHT22;63340;48.404;-4.506;2022-12-18T04:14:17;8.19;67.88
74811;DHT22;63340;48.404;-4.506;2022-12-18T04:16:42;8.21;67.70
74811;DHT22;63340;48.404;-4.506;2022-12-18T04:19:07;8.29;67.55
74811;DHT22;63340;48.404;-4.506;2022-12-18T04:21:33;8.30;67.69
74811;DHT22;63340;48.404;-4.506;2022-12-18T04:23:58;8.33;67.71
74811;DHT22;63340;48.404;-4.506;2022-12-18T04:26:24;8.36;67.68
74811;DHT22;63340;48.404;-4.506;2022-12-18T04:28:49;8.34;68.21
74811;DHT22;63340;48.404;-4.506;2022-12-18T04:31:15;8.34;68.82
74811;DHT22;63340;48.404;-4.506;2022-12-18T04:33:40;8.37;69.06
74811;DHT22;63340;48.404;-4.506;2022-12-18T04:36:06;8.34;70.57
74811;DHT22;63340;48.404;-4.506;2022-12-18T04:38:31;8.34;71.01
74811;DHT22;63340;48.404;-4.506;2022-12-18T04:40:57;8.36;70.57
74811;DHT22;63340;48.404;-4.506;2022-12-18T04:43:23;8.33;72.88
74811;DHT22;63340;48.404;-4.506;2022-12-18T04:45:48;8.34;72.00
74811;DHT22;63340;48.404;-4.506;2022-12-18T04:48:14;8.36;72.92
74811;DHT22;63340;48.404;-4.506;2022-12-18T04:50:39;8.42;72.13
74811;DHT22;63340;48.404;-4.506;2022-12-18T04:53:04;8.40;72.85
74811;DHT22;63340;48.404;-4.506;2022-12-18T04:55:30;8.42;73.09
74811;DHT22;63340;48.404;-4.506;2022-12-18T04:57:55;8.42;73.88
74811;DHT22;63340;48.404;-4.506;2022-12-18T05:00:21;8.39;74.15
74811;DHT22;63340;48.404;-4.506;2022-12-18T05:02:46;8.40;73.65
74811;DHT22;63340;48.404;-4.506;2022-12-18T05:05:12;8.47;73.52
74811;DHT22;63340;48.404;-4.506;2022-12-18T05:07:37;8.49;74.28
74811;DHT22;63340;48.404;-4.506;2022-12-18T05:10:03;8.54;75.22
74811;DHT22;63340;48.404;-4.506;2022-12-18T05:12:31;8.52;75.41
74811;DHT22;63340;48.404;-4.506;2022-12-18T05:14:57;8.59;75.18
74811;DHT22;63340;48.404;-4.506;2022-12-18T05:17:22;8.61;74.58
74811;DHT22;63340;48.404;-4.506;2022-12-18T05:19:48;8.63;75.42
74811;DHT22;63340;48.404;-4.506;2022-12-18T05:22:13;8.61;76.54
74811;DHT22;63340;48.404;-4.506;2022-12-18T05:24:38;8.63;77.70
74811;DHT22;63340;48.404;-4.506;2022-12-18T05:27:04;8.64;78.53
74811;DHT22;63340;48.404;-4.506;2022-12-18T05:29:29;8.65;78.24
74811;DHT22;63340;48.404;-4.506;2022-12-18T05:31:55;8.63;79.14
74811;DHT22;63340;48.404;-4.506;2022-12-18T05:34:20;8.65;79.37
74811;DHT22;63340;48.404;-4.506;2022-12-18T05:36:46;8.68;79.18
74811;DHT22;63340;48.404;-4.506;2022-12-18T05:39:11;8.73;77.98
74811;DHT22;63340;48.404;-4.506;2022-12-18T05:41:37;8.71;79.41
74811;DHT22;63340;48.404;-4.506;2022-12-18T05:44:02;8.70;79.59
74811;DHT22;63340;48.404;-4.506;2022-12-18T05:46:28;8.75;78.95
74811;DHT22;63340;48.404;-4.506;2022-12-18T05:48:54;8.65;79.81
74811;DHT22;63340;48.404;-4.506;2022-12-18T05:51:21;8.67;79.67
74811;DHT22;63340;48.404;-4.506;2022-12-18T05:53:47;8.68;79.30
74811;DHT22;63340;48.404;-4.506;2022-12-18T05:56:15;8.74;79.48
74811;DHT22;63340;48.404;-4.506;2022-12-18T05:58:42;8.74;79.15
74811;DHT22;63340;48.404;-4.506;2022-12-18T06:01:08;8.75;78.95
74811;DHT22;63340;48.404;-4.506;2022-12-18T06:03:35;8.80;79.15
74811;DHT22;63340;48.404;-4.506;2022-12-18T06:06:00;8.78;79.37
74811;DHT22;63340;48.404;-4.506;2022-12-18T06:08:25;8.84;78.74
74811;DHT22;63340;48.404;-4.506;2022-12-18T06:10:51;8.87;78.67
74811;DHT22;63340;48.404;-4.506;2022-12-18T06:13:20;8.92;78.60
74811;DHT22;63340;48.404;-4.506;2022-12-18T06:15:45;8.94;79.08
74811;DHT22;63340;48.404;-4.506;2022-12-18T06:18:11;8.98;78.82
74811;DHT22;63340;48.404;-4.506;2022-12-18T06:20:36;9.01;78.99
74811;DHT22;63340;48.404;-4.506;2022-12-18T06:23:05;9.00;79.75
74811;DHT22;63340;48.404;-4.506;2022-12-18T06:25:30;9.04;79.91
74811;DHT22;63340;48.404;-4.506;2022-12-18T06:27:56;9.09;79.11
74811;DHT22;63340;48.404;-4.506;2022-12-18T06:30:21;9.12;79.27
74811;DHT22;63340;48.404;-4.506;2022-12-18T06:32:48;9.11;80.06
74811;DHT22;63340;48.404;-4.506;2022-12-18T06:35:13;9.11;79.66
74811;DHT22;63340;48.404;-4.506;2022-12-18T06:37:39;9.19;79.43
74811;DHT22;63340;48.404;-4.506;2022-12-18T06:40:05;9.14;79.43
74811;DHT22;63340;48.404;-4.506;2022-12-18T06:42:31;9.19;78.55
74811;DHT22;63340;48.404;-4.506;2022-12-18T06:44:57;9.21;78.83
74811;DHT22;63340;48.404;-4.506;2022-12-18T06:47:22;9.22;79.33
74811;DHT22;63340;48.404;-4.506;2022-12-18T06:49:48;9.25;78.90
74811;DHT22;63340;48.404;-4.506;2022-12-18T06:52:16;9.26;79.80
74811;DHT22;63340;48.404;-4.506;2022-12-18T06:54:41;9.29;80.19
74811;DHT22;63340;48.404;-4.506;2022-12-18T06:57:07;9.30;79.83
74811;DHT22;63340;48.404;-4.506;2022-12-18T06:59:32;9.29;80.98
74811;DHT22;63340;48.404;-4.506;2022-12-18T07:01:58;9.33;81.27
74811;DHT22;63340;48.404;-4.506;2022-12-18T07:04:30;9.38;82.25
74811;DHT22;63340;48.404;-4.506;2022-12-18T07:06:56;9.42;82.34
74811;DHT22;63340;48.404;-4.506;2022-12-18T07:09:22;9.44;82.83
74811;DHT22;63340;48.404;-4.506;2022-12-18T07:11:48;9.47;83.13
74811;DHT22;63340;48.404;-4.506;2022-12-18T07:14:13;9.44;83.49
74811;DHT22;63340;48.404;-4.506;2022-12-18T07:16:39;9.56;82.46
74811;DHT22;63340;48.404;-4.506;2022-12-18T07:19:04;9.54;83.27
74811;DHT22;63340;48.404;-4.506;2022-12-18T07:21:29;9.51;83.37
74811;DHT22;63340;48.404;-4.506;2022-12-18T07:23:56;9.50;83.40
74811;DHT22;63340;48.404;-4.506;2022-12-18T07:26:22;9.57;83.15
74811;DHT22;63340;48.404;-4.506;2022-12-18T07:28:48;9.61;82.63
74811;DHT22;63340;48.404;-4.506;2022-12-18T07:31:16;9.66;82.66
74811;DHT22;63340;48.404;-4.506;2022-12-18T07:33:42;9.70;82.79
74811;DHT22;63340;48.404;-4.506;2022-12-18T07:36:07;9.69;83.61
74811;DHT22;63340;48.404;-4.506;2022-12-18T07:38:35;9.73;83.31
74811;DHT22;63340;48.404;-4.506;2022-12-18T07:41:05;9.81;82.78
74811;DHT22;63340;48.404;-4.506;2022-12-18T07:43:31;9.86;83.46
74811;DHT22;63340;48.404;-4.506;2022-12-18T07:45:57;9.90;83.05
74811;DHT22;63340;48.404;-4.506;2022-12-18T07:48:22;9.95;83.06
74811;DHT22;63340;48.404;-4.506;2022-12-18T07:50:48;9.94;83.64
74811;DHT22;63340;48.404;-4.506;2022-12-18T07:53:13;9.98;83.73
74811;DHT22;63340;48.404;-4.506;2022-12-18T07:55:40;10.04;82.95
74811;DHT22;63340;48.404;-4.506;2022-12-18T07:58:06;10.08;83.24
74811;DHT22;63340;48.404;-4.506;2022-12-18T08:00:32;10.09;83.49
74811;DHT22;63340;48.404;-4.506;2022-12-18T08:02:57;10.12;83.99
74811;DHT22;63340;48.404;-4.506;2022-12-18T08:05:23;10.14;84.14
74811;DHT22;63340;48.404;-4.506;2022-12-18T08:07:48;10.17;83.89
74811;DHT22;63340;48.404;-4.506;2022-12-18T08:10:14;10.14;84.32
74811;DHT22;63340;48.404;-4.506;2022-12-18T08:12:39;10.21;84.16
74811;DHT22;63340;48.404;-4.506;2022-12-18T08:15:05;10.26;83.87
74811;DHT22;63340;48.404;-4.506;2022-12-18T08:17:31;10.36;83.65
74811;DHT22;63340;48.404;-4.506;2022-12-18T08:19:56;10.41;83.65
74811;DHT22;63340;48.404;-4.506;2022-12-18T08:22:22;10.45;83.96
74811;DHT22;63340;48.404;-4.506;2022-12-18T08:24:47;10.52;82.80
74811;DHT22;63340;48.404;-4.506;2022-12-18T08:27:12;10.52;83.96
74811;DHT22;63340;48.404;-4.506;2022-12-18T08:29:38;10.63;84.48
74811;DHT22;63340;48.404;-4.506;2022-12-18T08:32:04;10.69;83.43
74811;DHT22;63340;48.404;-4.506;2022-12-18T08:34:29;10.76;84.06
74811;DHT22;63340;48.404;-4.506;2022-12-18T08:36:55;10.79;84.24
74811;DHT22;63340;48.404;-4.506;2022-12-18T08:39:20;10.84;84.85
74811;DHT22;63340;48.404;-4.506;2022-12-18T08:41:46;10.90;85.48
74811;DHT22;63340;48.404;-4.506;2022-12-18T08:44:32;11.00;84.53
74811;DHT22;63340;48.404;-4.506;2022-12-18T08:47:07;11.04;85.95
74811;DHT22;63340;48.404;-4.506;2022-12-18T08:49:33;11.13;86.27
74811;DHT22;63340;48.404;-4.506;2022-12-18T08:51:58;11.21;86.51
74811;DHT22;63340;48.404;-4.506;2022-12-18T08:54:24;11.30;86.47
74811;DHT22;63340;48.404;-4.506;2022-12-18T08:56:50;11.34;86.50
74811;DHT22;63340;48.404;-4.506;2022-12-18T08:59:16;11.43;86.21
74811;DHT22;63340;48.404;-4.506;2022-12-18T09:01:42;11.52;85.94
74811;DHT22;63340;48.404;-4.506;2022-12-18T09:04:09;11.55;85.63
74811;DHT22;63340;48.404;-4.506;2022-12-18T09:06:35;11.62;85.32
74811;DHT22;63340;48.404;-4.506;2022-12-18T09:09:00;11.68;85.20
74811;DHT22;63340;48.404;-4.506;2022-12-18T09:11:27;11.69;85.13
74811;DHT22;63340;48.404;-4.506;2022-12-18T09:13:54;11.73;84.89
74811;DHT22;63340;48.404;-4.506;2022-12-18T09:16:20;11.78;84.87
74811;DHT22;63340;48.404;-4.506;2022-12-18T09:18:46;11.82;84.58
74811;DHT22;63340;48.404;-4.506;2022-12-18T09:21:18;11.83;84.42
74811;DHT22;63340;48.404;-4.506;2022-12-18T09:23:48;11.85;84.68
74811;DHT22;63340;48.404;-4.506;2022-12-18T09:26:14;11.87;84.48
74811;DHT22;63340;48.404;-4.506;2022-12-18T09:28:39;11.91;84.16
74811;DHT22;63340;48.404;-4.506;2022-12-18T09:31:07;11.90;84.38
74811;DHT22;63340;48.404;-4.506;2022-12-18T09:33:37;11.90;84.33
74811;DHT22;63340;48.404;-4.506;2022-12-18T09:36:04;11.83;84.93
74811;DHT22;63340;48.404;-4.506;2022-12-18T09:38:30;11.90;84.83
74811;DHT22;63340;48.404;-4.506;2022-12-18T09:41:00;11.90;84.62
74811;DHT22;63340;48.404;-4.506;2022-12-18T09:43:42;11.94;84.41
74811;DHT22;63340;48.404;-4.506;2022-12-18T09:46:15;11.97;84.35
74811;DHT22;63340;48.404;-4.506;2022-12-18T09:48:45;11.93;84.73
74811;DHT22;63340;48.404;-4.506;2022-12-18T09:51:19;11.91;84.63
74811;DHT22;63340;48.404;-4.506;2022-12-18T09:53:53;11.94;84.42
74811;DHT22;63340;48.404;-4.506;2022-12-18T09:56:22;11.94;84.62
74811;DHT22;63340;48.404;-4.506;2022-12-18T09:59:01;11.96;84.63
74811;DHT22;63340;48.404;-4.506;2022-12-18T10:01:27;11.94;84.62
74811;DHT22;63340;48.404;-4.506;2022-12-18T10:03:54;11.90;84.97
74811;DHT22;63340;48.404;-4.506;2022-12-18T10:06:38;11.93;84.72
74811;DHT22;63340;48.404;-4.506;2022-12-18T10:12:17;11.93;84.51
74811;DHT22;63340;48.404;-4.506;2022-12-18T10:15:07;11.96;84.54
74811;DHT22;63340;48.404;-4.506;2022-12-18T10:17:46;12.00;84.22
74811;DHT22;63340;48.404;-4.506;2022-12-18T10:20:17;11.97;84.65
74811;DHT22;63340;48.404;-4.506;2022-12-18T10:23:08;11.94;84.89
74811;DHT22;63340;48.404;-4.506;2022-12-18T10:26:03;11.93;85.02
74811;DHT22;63340;48.404;-4.506;2022-12-18T10:28:31;11.97;84.90
74811;DHT22;63340;48.404;-4.506;2022-12-18T10:30:58;11.99;84.80
74811;DHT22;63340;48.404;-4.506;2022-12-18T10:33:27;12.00;84.75
74811;DHT22;63340;48.404;-4.506;2022-12-18T10:35:53;12.03;84.62
74811;DHT22;63340;48.404;-4.506;2022-12-18T10:41:03;12.03;84.74
74811;DHT22;63340;48.404;-4.506;2022-12-18T10:43:30;11.97;85.06
74811;DHT22;63340;48.404;-4.506;2022-12-18T10:46:14;12.03;84.81
74811;DHT22;63340;48.404;-4.506;2022-12-18T10:48:56;12.04;84.64
74811;DHT22;63340;48.404;-4.506;2022-12-18T10:51:42;12.00;84.84
74811;DHT22;63340;48.404;-4.506;2022-12-18T10:54:23;12.00;84.84
74811;DHT22;63340;48.404;-4.506;2022-12-18T10:56:49;12.03;84.93
74811;DHT22;63340;48.404;-4.506;2022-12-18T10:59:16;12.03;84.87
74811;DHT22;63340;48.404;-4.506;2022-12-18T11:04:16;12.10;84.64
74811;DHT22;63340;48.404;-4.506;2022-12-18T11:07:11;12.03;84.99
74811;DHT22;63340;48.404;-4.506;2022-12-18T11:09:40;12.14;84.60
74811;DHT22;63340;48.404;-4.506;2022-12-18T11:12:15;12.14;84.49
74811;DHT22;63340;48.404;-4.506;2022-12-18T11:14:46;12.16;84.64
74811;DHT22;63340;48.404;-4.506;2022-12-18T11:17:28;12.16;84.58
74811;DHT22;63340;48.404;-4.506;2022-12-18T11:20:00;12.18;84.58
74811;DHT22;63340;48.404;-4.506;2022-12-18T11:22:31;12.18;84.48
74811;DHT22;63340;48.404;-4.506;2022-12-18T11:27:38;12.20;84.55
74811;DHT22;63340;48.404;-4.506;2022-12-18T11:30:31;12.20;84.19
74811;DHT22;63340;48.404;-4.506;2022-12-18T11:33:19;12.27;84.14
74811;DHT22;63340;48.404;-4.506;2022-12-18T11:35:47;12.27;84.15
74811;DHT22;63340;48.404;-4.506;2022-12-18T11:40:42;12.23;84.28
74811;DHT22;63340;48.404;-4.506;2022-12-18T11:45:56;12.20;84.61
74811;DHT22;63340;48.404;-4.506;2022-12-18T11:48:36;12.24;84.48
74811;DHT22;63340;48.404;-4.506;2022-12-18T11:51:05;12.28;84.19
74811;DHT22;63340;48.404;-4.506;2022-12-18T11:53:35;12.28;84.21
74811;DHT22;63340;48.404;-4.506;2022-12-18T11:56:39;12.28;83.91
74811;DHT22;63340;48.404;-4.506;2022-12-18T12:02:11;12.27;84.19
74811;DHT22;63340;48.404;-4.506;2022-12-18T12:04:46;12.23;84.37
74811;DHT22;63340;48.404;-4.506;2022-12-18T12:08:00;12.30;84.23
74811;DHT22;63340;48.404;-4.506;2022-12-18T12:13:29;12.26;84.35
74811;DHT22;63340;48.404;-4.506;2022-12-18T12:16:14;12.28;84.42
74811;DHT22;63340;48.404;-4.506;2022-12-18T12:21:33;12.26;84.51
74811;DHT22;63340;48.404;-4.506;2022-12-18T12:24:19;12.33;84.39
74811;DHT22;63340;48.404;-4.506;2022-12-18T12:40:14;12.30;84.92
74811;DHT22;63340;48.404;-4.506;2022-12-18T12:42:48;12.37;84.60
74811;DHT22;63340;48.404;-4.506;2022-12-18T12:45:45;12.30;84.80
74811;DHT22;63340;48.404;-4.506;2022-12-18T12:50:50;12.27;84.98
74811;DHT22;63340;48.404;-4.506;2022-12-18T12:53:26;12.24;85.15
74811;DHT22;63340;48.404;-4.506;2022-12-18T12:55:53;12.26;85.23
74811;DHT22;63340;48.404;-4.506;2022-12-18T12:58:31;12.31;85.20
74811;DHT22;63340;48.404;-4.506;2022-12-18T13:01:17;12.34;84.90
74811;DHT22;63340;48.404;-4.506;2022-12-18T13:06:49;12.37;85.00
74811;DHT22;63340;48.404;-4.506;2022-12-18T13:09:15;12.37;85.17
74811;DHT22;63340;48.404;-4.506;2022-12-18T13:11:45;12.42;85.00
74811;DHT22;63340;48.404;-4.506;2022-12-18T13:14:35;12.41;85.46
74811;DHT22;63340;48.404;-4.506;2022-12-18T13:20:02;12.45;85.19
74811;DHT22;63340;48.404;-4.506;2022-12-18T13:22:33;12.51;84.95
74811;DHT22;63340;48.404;-4.506;2022-12-18T13:24:59;12.54;84.85
74811;DHT22;63340;48.404;-4.506;2022-12-18T13:41:22;12.59;85.04
74811;DHT22;63340;48.404;-4.506;2022-12-18T13:43:55;12.55;85.14
74811;DHT22;63340;48.404;-4.506;2022-12-18T13:46:44;12.57;85.11
74811;DHT22;63340;48.404;-4.506;2022-12-18T13:51:46;12.57;85.15
74811;DHT22;63340;48.404;-4.506;2022-12-18T13:54:36;12.55;85.27
74811;DHT22;63340;48.404;-4.506;2022-12-18T13:57:03;12.54;85.35
74811;DHT22;63340;48.404;-4.506;2022-12-18T13:59:38;12.57;85.38
74811;DHT22;63340;48.404;-4.506;2022-12-18T14:02:14;12.61;85.20
74811;DHT22;63340;48.404;-4.506;2022-12-18T14:04:39;12.62;85.37
74811;DHT22;63340;48.404;-4.506;2022-12-18T14:07:25;12.57;85.37
74811;DHT22;63340;48.404;-4.506;2022-12-18T14:09:56;12.52;85.69
74811;DHT22;63340;48.404;-4.506;2022-12-18T14:12:26;12.55;85.57
74811;DHT22;63340;48.404;-4.506;2022-12-18T14:18:21;12.62;85.13
74811;DHT22;63340;48.404;-4.506;2022-12-18T14:20:49;12.65;85.01
74811;DHT22;63340;48.404;-4.506;2022-12-18T14:23:44;12.65;84.99
74811;DHT22;63340;48.404;-4.506;2022-12-18T14:28:47;12.71;84.86
74811;DHT22;63340;48.404;-4.506;2022-12-18T14:31:21;12.71;85.05
74811;DHT22;63340;48.404;-4.506;2022-12-18T14:33:47;12.75;85.28
74811;DHT22;63340;48.404;-4.506;2022-12-18T14:36:16;12.68;85.68
74811;DHT22;63340;48.404;-4.506;2022-12-18T14:38:42;12.71;85.86
74811;DHT22;63340;48.404;-4.506;2022-12-18T14:41:13;12.69;85.92
74811;DHT22;63340;48.404;-4.506;2022-12-18T14:43:41;12.72;85.87
74811;DHT22;63340;48.404;-4.506;2022-12-18T14:46:35;12.72;85.83
74811;DHT22;63340;48.404;-4.506;2022-12-18T14:51:56;12.75;85.79
74811;DHT22;63340;48.404;-4.506;2022-12-18T14:54:25;12.72;86.26
74811;DHT22;63340;48.404;-4.506;2022-12-18T14:57:32;12.72;86.14
74811;DHT22;63340;48.404;-4.506;2022-12-18T15:00:07;12.72;86.15
74811;DHT22;63340;48.404;-4.506;2022-12-18T15:02:35;12.71;85.97
74811;DHT22;63340;48.404;-4.506;2022-12-18T15:07:42;12.72;86.15
74811;DHT22;63340;48.404;-4.506;2022-12-18T15:18:25;12.69;85.89
74811;DHT22;63340;48.404;-4.506;2022-12-18T15:20:56;12.71;86.14
74811;DHT22;63340;48.404;-4.506;2022-12-18T15:23:38;12.64;86.04
74811;DHT22;63340;48.404;-4.506;2022-12-18T15:26:13;12.69;86.28
74811;DHT22;63340;48.404;-4.506;2022-12-18T15:28:52;12.66;86.16
74811;DHT22;63340;48.404;-4.506;2022-12-18T15:31:30;12.64;86.49
74811;DHT22;63340;48.404;-4.506;2022-12-18T15:36:24;12.68;86.27
74811;DHT22;63340;48.404;-4.506;2022-12-18T15:38:54;12.65;86.26
74811;DHT22;63340;48.404;-4.506;2022-12-18T15:41:21;12.72;86.09
74811;DHT22;63340;48.404;-4.506;2022-12-18T15:43:51;12.75;85.63
74811;DHT22;63340;48.404;-4.506;2022-12-18T15:46:22;12.74;85.57
74811;DHT22;63340;48.404;-4.506;2022-12-18T15:48:50;12.74;85.29
74811;DHT22;63340;48.404;-4.506;2022-12-18T15:51:19;12.72;85.25
74811;DHT22;63340;48.404;-4.506;2022-12-18T15:53:46;12.74;85.26
74811;DHT22;63340;48.404;-4.506;2022-12-18T15:56:14;12.75;85.38
74811;DHT22;63340;48.404;-4.506;2022-12-18T15:58:59;12.75;85.12
74811;DHT22;63340;48.404;-4.506;2022-12-18T16:01:27;12.74;84.96
74811;DHT22;63340;48.404;-4.506;2022-12-18T16:03:52;12.74;85.13
74811;DHT22;63340;48.404;-4.506;2022-12-18T16:06:19;12.81;84.94
74811;DHT22;63340;48.404;-4.506;2022-12-18T16:08:45;12.78;84.98
74811;DHT22;63340;48.404;-4.506;2022-12-18T16:11:23;12.84;84.68
74811;DHT22;63340;48.404;-4.506;2022-12-18T16:16:41;12.89;84.59
74811;DHT22;63340;48.404;-4.506;2022-12-18T16:19:07;12.89;84.51
74811;DHT22;63340;48.404;-4.506;2022-12-18T16:21:32;12.92;84.45
74811;DHT22;63340;48.404;-4.506;2022-12-18T16:23:58;12.88;84.71
74811;DHT22;63340;48.404;-4.506;2022-12-18T16:26:23;12.91;84.82
74811;DHT22;63340;48.404;-4.506;2022-12-18T16:28:48;12.93;84.96
74811;DHT22;63340;48.404;-4.506;2022-12-18T16:31:14;12.95;84.85
74811;DHT22;63340;48.404;-4.506;2022-12-18T16:33:40;13.03;84.66
74811;DHT22;63340;48.404;-4.506;2022-12-18T16:36:05;13.09;84.44
74811;DHT22;63340;48.404;-4.506;2022-12-18T16:38:31;13.07;84.26
74811;DHT22;63340;48.404;-4.506;2022-12-18T16:40:56;13.14;84.08
74811;DHT22;63340;48.404;-4.506;2022-12-18T16:43:40;13.17;84.01
74811;DHT22;63340;48.404;-4.506;2022-12-18T16:46:06;13.24;83.82
74811;DHT22;63340;48.404;-4.506;2022-12-18T16:48:31;13.28;83.65
74811;DHT22;63340;48.404;-4.506;2022-12-18T16:51:01;13.37;83.27
74811;DHT22;63340;48.404;-4.506;2022-12-18T16:53:28;13.41;83.00
74811;DHT22;63340;48.404;-4.506;2022-12-18T16:55:54;13.47;82.83
74811;DHT22;63340;48.404;-4.506;2022-12-18T16:58:20;13.50;82.81
74811;DHT22;63340;48.404;-4.506;2022-12-18T17:00:45;13.55;82.59
74811;DHT22;63340;48.404;-4.506;2022-12-18T17:03:11;13.61;82.48
74811;DHT22;63340;48.404;-4.506;2022-12-18T17:05:36;13.62;82.40
74811;DHT22;63340;48.404;-4.506;2022-12-18T17:08:02;13.70;82.25
74811;DHT22;63340;48.404;-4.506;2022-12-18T17:10:27;13.74;81.93
74811;DHT22;63340;48.404;-4.506;2022-12-18T17:12:53;13.77;82.08
74811;DHT22;63340;48.404;-4.506;2022-12-18T17:15:18;13.78;81.80
74811;DHT22;63340;48.404;-4.506;2022-12-18T17:17:44;13.79;81.85
74811;DHT22;63340;48.404;-4.506;2022-12-18T17:20:09;13.83;81.74
74811;DHT22;63340;48.404;-4.506;2022-12-18T17:22:35;13.86;81.77
74811;DHT22;63340;48.404;-4.506;2022-12-18T17:25:00;13.86;82.05
74811;DHT22;63340;48.404;-4.506;2022-12-18T17:27:25;13.92;82.02
74811;DHT22;63340;48.404;-4.506;2022-12-18T17:29:51;13.94;82.23
74811;DHT22;63340;48.404;-4.506;2022-12-18T17:32:18;13.95;82.75
74811;DHT22;63340;48.404;-4.506;2022-12-18T17:34:43;13.89;83.18
74811;DHT22;63340;48.404;-4.506;2022-12-18T17:37:08;13.94;83.40
74811;DHT22;63340;48.404;-4.506;2022-12-18T17:39:34;13.98;83.58